sensor_id;sensor_type;location;lat;lon;timestamp;P1;durP1;ratioP1;P2;durP2;ratioP2
53654;SDS011;39558;52.028;8.536;2023-04-24T00:01:30;1.85;;;0.95;;
53654;SDS011;39558;52.028;8.536;2023-04-24T00:03:56;1.73;;;0.90;;
53654;SDS011;39558;52.028;8.536;2023-04-24T00:06:24;1.95;;;0.70;;
53654;SDS011;39558;52.028;8.536;2023-04-24T00:08:58;2.00;;;0.77;;
53654;SDS011;39558;52.028;8.536;2023-04-24T00:11:24;1.48;;;0.90;;
53654;SDS011;39558;52.028;8.536;2023-04-24T00:13:50;1.58;;;0.95;;
53654;SDS011;39558;52.028;8.536;2023-04-24T00:16:16;1.98;;;0.93;;
53654;SDS011;39558;52.028;8.536;2023-04-24T00:18:42;2.45;;;0.90;;
53654;SDS011;39558;52.028;8.536;2023-04-24T00:21:09;1.40;;;0.80;;
53654;SDS011;39558;52.028;8.536;2023-04-24T00:23:35;1.98;;;1.20;;
53654;SDS011;39558;52.028;8.536;2023-04-24T00:26:01;2.78;;;1.02;;
53654;SDS011;39558;52.028;8.536;2023-04-24T00:28:27;1.83;;;0.80;;
53654;SDS011;39558;52.028;8.536;2023-04-24T00:30:53;1.25;;;0.80;;
53654;SDS011;39558;52.028;8.536;2023-04-24T00:33:19;2.00;;;0.82;;
53654;SDS011;39558;52.028;8.536;2023-04-24T00:35:45;1.45;;;0.80;;
53654;SDS011;39558;52.028;8.536;2023-04-24T00:38:11;1.42;;;0.88;;
53654;SDS011;39558;52.028;8.536;2023-04-24T00:40:37;1.77;;;0.80;;
53654;SDS011;39558;52.028;8.536;2023-04-24T00:43:03;1.48;;;0.95;;
53654;SDS011;39558;52.028;8.536;2023-04-24T00:45:29;1.92;;;0.90;;
53654;SDS011;39558;52.028;8.536;2023-04-24T00:47:56;1.42;;;0.90;;
53654;SDS011;39558;52.028;8.536;2023-04-24T00:50:23;2.05;;;0.70;;
53654;SDS011;39558;52.028;8.536;2023-04-24T00:52:49;1.52;;;0.88;;
53654;SDS011;39558;52.028;8.536;2023-04-24T00:55:16;1.45;;;0.80;;
53654;SDS011;39558;52.028;8.536;2023-04-24T00:57:42;1.52;;;0.70;;
53654;SDS011;39558;52.028;8.536;2023-04-24T01:00:08;1.30;;;0.70;;
53654;SDS011;39558;52.028;8.536;2023-04-24T01:02:35;1.70;;;0.80;;
53654;SDS011;39558;52.028;8.536;2023-04-24T01:05:01;2.08;;;0.93;;
53654;SDS011;39558;52.028;8.536;2023-04-24T01:07:28;1.83;;;0.80;;
53654;SDS011;39558;52.028;8.536;2023-04-24T01:09:54;1.67;;;0.90;;
53654;SDS011;39558;52.028;8.536;2023-04-24T01:12:20;1.05;;;0.70;;
53654;SDS011;39558;52.028;8.536;2023-04-24T01:14:46;1.48;;;0.90;;
53654;SDS011;39558;52.028;8.536;2023-04-24T01:17:12;1.27;;;0.93;;
53654;SDS011;39558;52.028;8.536;2023-04-24T01:19:38;1.92;;;0.95;;
53654;SDS011;39558;52.028;8.536;2023-04-24T01:22:11;1.50;;;0.70;;
53654;SDS011;39558;52.028;8.536;2023-04-24T01:24:38;1.30;;;0.80;;
53654;SDS011;39558;52.028;8.536;2023-04-24T01:27:04;1.83;;;0.65;;
53654;SDS011;39558;52.028;8.536;2023-04-24T01:29:30;1.75;;;0.90;;
53654;SDS011;39558;52.028;8.536;2023-04-24T01:31:56;1.92;;;0.95;;
53654;SDS011;39558;52.028;8.536;2023-04-24T01:34:23;1.17;;;0.85;;
53654;SDS011;39558;52.028;8.536;2023-04-24T01:36:49;1.67;;;0.85;;
53654;SDS011;39558;52.028;8.536;2023-04-24T01:39:15;1.33;;;0.77;;
53654;SDS011;39558;52.028;8.536;2023-04-24T01:41:41;1.80;;;0.90;;
53654;SDS011;39558;52.028;8.536;2023-04-24T01:44:07;1.60;;;0.70;;
53654;SDS011;39558;52.028;8.536;2023-04-24T01:46:33;1.30;;;0.75;;
53654;SDS011;39558;52.028;8.536;2023-04-24T01:49:00;2.65;;;1.17;;
53654;SDS011;39558;52.028;8.536;2023-04-24T01:51:26;1.65;;;0.98;;
53654;SDS011;39558;52.028;8.536;2023-04-24T01:53:52;2.25;;;0.93;;
53654;SDS011;39558;52.028;8.536;2023-04-24T01:56:19;1.58;;;0.93;;
53654;SDS011;39558;52.028;8.536;2023-04-24T01:58:45;0.98;;;0.55;;
53654;SDS011;39558;52.028;8.536;2023-04-24T02:01:15;1.48;;;0.80;;
53654;SDS011;39558;52.028;8.536;2023-04-24T02:03:43;2.05;;;0.80;;
53654;SDS011;39558;52.028;8.536;2023-04-24T02:06:09;2.15;;;1.02;;
53654;SDS011;39558;52.028;8.536;2023-04-24T02:08:35;1.88;;;1.00;;
53654;SDS011;39558;52.028;8.536;2023-04-24T02:11:00;1.60;;;0.90;;
53654;SDS011;39558;52.028;8.536;2023-04-24T02:13:27;2.00;;;1.00;;
53654;SDS011;39558;52.028;8.536;2023-04-24T02:15:53;1.48;;;0.73;;
53654;SDS011;39558;52.028;8.536;2023-04-24T02:18:19;1.70;;;0.82;;
53654;SDS011;39558;52.028;8.536;2023-04-24T02:20:45;1.10;;;0.60;;
53654;SDS011;39558;52.028;8.536;2023-04-24T02:23:11;1.63;;;0.88;;
53654;SDS011;39558;52.028;8.536;2023-04-24T02:25:39;1.63;;;0.88;;
53654;SDS011;39558;52.028;8.536;2023-04-24T02:28:04;1.30;;;0.88;;
53654;SDS011;39558;52.028;8.536;2023-04-24T02:30:30;1.55;;;1.00;;
53654;SDS011;39558;52.028;8.536;2023-04-24T02:32:56;1.88;;;1.02;;
53654;SDS011;39558;52.028;8.536;2023-04-24T02:35:22;2.50;;;1.00;;
53654;SDS011;39558;52.028;8.536;2023-04-24T02:37:48;1.95;;;0.90;;
53654;SDS011;39558;52.028;8.536;2023-04-24T02:40:14;2.00;;;0.90;;
53654;SDS011;39558;52.028;8.536;2023-04-24T02:42:40;3.00;;;1.10;;
53654;SDS011;39558;52.028;8.536;2023-04-24T02:45:06;1.35;;;0.68;;
53654;SDS011;39558;52.028;8.536;2023-04-24T02:47:32;1.70;;;0.90;;
53654;SDS011;39558;52.028;8.536;2023-04-24T02:49:58;1.42;;;0.88;;
53654;SDS011;39558;52.028;8.536;2023-04-24T02:52:24;1.67;;;0.93;;
53654;SDS011;39558;52.028;8.536;2023-04-24T02:54:49;1.05;;;0.57;;
53654;SDS011;39558;52.028;8.536;2023-04-24T02:57:15;2.95;;;1.15;;
53654;SDS011;39558;52.028;8.536;2023-04-24T02:59:41;2.38;;;1.00;;
53654;SDS011;39558;52.028;8.536;2023-04-24T03:02:07;1.75;;;0.80;;
53654;SDS011;39558;52.028;8.536;2023-04-24T03:04:33;1.95;;;1.05;;
53654;SDS011;39558;52.028;8.536;2023-04-24T03:06:59;2.22;;;0.77;;
53654;SDS011;39558;52.028;8.536;2023-04-24T03:09:26;1.35;;;0.80;;
53654;SDS011;39558;52.028;8.536;2023-04-24T03:11:51;2.08;;;0.95;;
53654;SDS011;39558;52.028;8.536;2023-04-24T03:14:17;3.30;;;1.00;;
53654;SDS011;39558;52.028;8.536;2023-04-24T03:16:43;2.08;;;1.02;;
53654;SDS011;39558;52.028;8.536;2023-04-24T03:19:09;2.67;;;0.85;;
53654;SDS011;39558;52.028;8.536;2023-04-24T03:21:35;2.35;;;1.38;;
53654;SDS011;39558;52.028;8.536;2023-04-24T03:24:05;1.80;;;0.82;;
53654;SDS011;39558;52.028;8.536;2023-04-24T03:26:31;1.52;;;0.80;;
53654;SDS011;39558;52.028;8.536;2023-04-24T03:28:57;1.67;;;1.00;;
53654;SDS011;39558;52.028;8.536;2023-04-24T03:31:23;1.27;;;0.95;;
53654;SDS011;39558;52.028;8.536;2023-04-24T03:33:48;1.27;;;0.90;;
53654;SDS011;39558;52.028;8.536;2023-04-24T03:36:14;1.33;;;0.70;;
53654;SDS011;39558;52.028;8.536;2023-04-24T03:38:40;1.70;;;0.82;;
53654;SDS011;39558;52.028;8.536;2023-04-24T03:41:06;2.00;;;1.02;;
53654;SDS011;39558;52.028;8.536;2023-04-24T03:43:32;1.23;;;0.70;;
53654;SDS011;39558;52.028;8.536;2023-04-24T03:45:59;1.85;;;0.80;;
53654;SDS011;39558;52.028;8.536;2023-04-24T03:48:25;1.65;;;0.93;;
53654;SDS011;39558;52.028;8.536;2023-04-24T03:50:51;2.67;;;1.13;;
53654;SDS011;39558;52.028;8.536;2023-04-24T03:53:17;2.30;;;0.93;;
53654;SDS011;39558;52.028;8.536;2023-04-24T03:55:43;1.98;;;0.90;;
53654;SDS011;39558;52.028;8.536;2023-04-24T03:58:08;2.40;;;0.80;;
53654;SDS011;39558;52.028;8.536;2023-04-24T04:00:35;2.08;;;0.88;;
53654;SDS011;39558;52.028;8.536;2023-04-24T04:03:02;1.20;;;0.70;;
53654;SDS011;39558;52.028;8.536;2023-04-24T04:05:28;1.67;;;0.80;;
53654;SDS011;39558;52.028;8.536;2023-04-24T04:07:54;1.70;;;0.77;;
53654;SDS011;39558;52.028;8.536;2023-04-24T04:10:20;1.67;;;0.80;;
53654;SDS011;39558;52.028;8.536;2023-04-24T04:12:46;1.23;;;0.75;;
53654;SDS011;39558;52.028;8.536;2023-04-24T04:15:12;1.15;;;0.68;;
53654;SDS011;39558;52.028;8.536;2023-04-24T04:17:37;1.75;;;1.00;;
53654;SDS011;39558;52.028;8.536;2023-04-24T04:20:04;1.55;;;0.93;;
53654;SDS011;39558;52.028;8.536;2023-04-24T04:22:34;1.55;;;0.77;;
53654;SDS011;39558;52.028;8.536;2023-04-24T04:25:00;1.77;;;0.70;;
53654;SDS011;39558;52.028;8.536;2023-04-24T04:27:26;1.67;;;0.85;;
53654;SDS011;39558;52.028;8.536;2023-04-24T04:29:53;2.05;;;1.15;;
53654;SDS011;39558;52.028;8.536;2023-04-24T04:32:21;1.30;;;0.80;;
53654;SDS011;39558;52.028;8.536;2023-04-24T04:34:47;1.63;;;0.98;;
53654;SDS011;39558;52.028;8.536;2023-04-24T04:37:14;1.60;;;0.77;;
53654;SDS011;39558;52.028;8.536;2023-04-24T04:39:40;1.05;;;0.75;;
53654;SDS011;39558;52.028;8.536;2023-04-24T04:42:06;1.35;;;0.88;;
53654;SDS011;39558;52.028;8.536;2023-04-24T04:44:32;1.63;;;0.85;;
53654;SDS011;39558;52.028;8.536;2023-04-24T04:46:57;1.23;;;0.80;;
53654;SDS011;39558;52.028;8.536;2023-04-24T04:49:25;2.00;;;0.80;;
53654;SDS011;39558;52.028;8.536;2023-04-24T04:51:53;1.30;;;0.80;;
53654;SDS011;39558;52.028;8.536;2023-04-24T04:54:19;1.35;;;0.70;;
53654;SDS011;39558;52.028;8.536;2023-04-24T04:56:45;1.55;;;0.90;;
53654;SDS011;39558;52.028;8.536;2023-04-24T04:59:10;1.63;;;0.77;;
53654;SDS011;39558;52.028;8.536;2023-04-24T05:01:37;2.08;;;1.00;;
53654;SDS011;39558;52.028;8.536;2023-04-24T05:04:03;1.33;;;0.82;;
53654;SDS011;39558;52.028;8.536;2023-04-24T05:06:29;1.80;;;0.75;;
53654;SDS011;39558;52.028;8.536;2023-04-24T05:08:55;0.80;;;0.50;;
53654;SDS011;39558;52.028;8.536;2023-04-24T05:11:22;1.67;;;0.90;;
53654;SDS011;39558;52.028;8.536;2023-04-24T05:13:48;1.83;;;0.85;;
53654;SDS011;39558;52.028;8.536;2023-04-24T05:16:14;1.40;;;0.70;;
53654;SDS011;39558;52.028;8.536;2023-04-24T05:18:41;1.30;;;0.80;;
53654;SDS011;39558;52.028;8.536;2023-04-24T05:21:07;1.23;;;0.63;;
53654;SDS011;39558;52.028;8.536;2023-04-24T05:23:33;1.60;;;0.90;;
53654;SDS011;39558;52.028;8.536;2023-04-24T05:25:59;1.27;;;0.65;;
53654;SDS011;39558;52.028;8.536;2023-04-24T05:28:25;2.13;;;0.80;;
53654;SDS011;39558;52.028;8.536;2023-04-24T05:30:53;1.38;;;0.65;;
53654;SDS011;39558;52.028;8.536;2023-04-24T05:33:19;3.53;;;0.80;;
53654;SDS011;39558;52.028;8.536;2023-04-24T05:35:45;1.65;;;0.93;;
53654;SDS011;39558;52.028;8.536;2023-04-24T05:38:12;1.73;;;0.90;;
53654;SDS011;39558;52.028;8.536;2023-04-24T05:40:38;1.10;;;0.70;;
53654;SDS011;39558;52.028;8.536;2023-04-24T05:43:04;1.23;;;0.60;;
53654;SDS011;39558;52.028;8.536;2023-04-24T05:45:30;1.35;;;0.70;;
53654;SDS011;39558;52.028;8.536;2023-04-24T05:47:56;1.27;;;0.65;;
53654;SDS011;39558;52.028;8.536;2023-04-24T05:50:22;1.90;;;0.82;;
53654;SDS011;39558;52.028;8.536;2023-04-24T05:52:48;1.92;;;0.93;;
53654;SDS011;39558;52.028;8.536;2023-04-24T05:55:14;1.85;;;0.70;;
53654;SDS011;39558;52.028;8.536;2023-04-24T05:57:43;1.33;;;0.70;;
53654;SDS011;39558;52.028;8.536;2023-04-24T06:00:09;1.75;;;0.80;;
53654;SDS011;39558;52.028;8.536;2023-04-24T06:02:37;2.63;;;0.80;;
53654;SDS011;39558;52.028;8.536;2023-04-24T06:05:02;1.90;;;0.68;;
53654;SDS011;39558;52.028;8.536;2023-04-24T06:07:29;1.30;;;0.77;;
53654;SDS011;39558;52.028;8.536;2023-04-24T06:09:55;0.77;;;0.32;;
53654;SDS011;39558;52.028;8.536;2023-04-24T06:12:21;0.98;;;0.68;;
53654;SDS011;39558;52.028;8.536;2023-04-24T06:14:47;1.55;;;0.80;;
53654;SDS011;39558;52.028;8.536;2023-04-24T06:17:13;1.08;;;0.70;;
53654;SDS011;39558;52.028;8.536;2023-04-24T06:19:39;1.63;;;0.82;;
53654;SDS011;39558;52.028;8.536;2023-04-24T06:22:05;1.30;;;0.70;;
53654;SDS011;39558;52.028;8.536;2023-04-24T06:24:31;1.63;;;0.80;;
53654;SDS011;39558;52.028;8.536;2023-04-24T06:26:57;0.90;;;0.50;;
53654;SDS011;39558;52.028;8.536;2023-04-24T06:29:24;1.20;;;0.70;;
53654;SDS011;39558;52.028;8.536;2023-04-24T06:31:50;0.77;;;0.50;;
53654;SDS011;39558;52.028;8.536;2023-04-24T06:34:16;0.65;;;0.40;;
53654;SDS011;39558;52.028;8.536;2023-04-24T06:36:42;0.80;;;0.50;;
53654;SDS011;39558;52.028;8.536;2023-04-24T06:39:08;1.00;;;0.70;;
53654;SDS011;39558;52.028;8.536;2023-04-24T06:41:34;1.38;;;0.50;;
53654;SDS011;39558;52.028;8.536;2023-04-24T06:44:00;1.15;;;0.45;;
53654;SDS011;39558;52.028;8.536;2023-04-24T06:46:26;1.48;;;0.60;;
53654;SDS011;39558;52.028;8.536;2023-04-24T06:48:53;1.45;;;0.60;;
53654;SDS011;39558;52.028;8.536;2023-04-24T06:51:24;1.33;;;0.60;;
53654;SDS011;39558;52.028;8.536;2023-04-24T06:53:54;1.40;;;0.70;;
53654;SDS011;39558;52.028;8.536;2023-04-24T06:58:47;0.82;;;0.60;;
53654;SDS011;39558;52.028;8.536;2023-04-24T07:01:13;1.38;;;0.57;;
53654;SDS011;39558;52.028;8.536;2023-04-24T07:03:38;1.17;;;0.70;;
53654;SDS011;39558;52.028;8.536;2023-04-24T07:06:05;1.63;;;0.52;;
53654;SDS011;39558;52.028;8.536;2023-04-24T07:08:31;0.90;;;0.43;;
53654;SDS011;39558;52.028;8.536;2023-04-24T07:10:57;0.82;;;0.68;;
53654;SDS011;39558;52.028;8.536;2023-04-24T07:13:23;1.00;;;0.60;;
53654;SDS011;39558;52.028;8.536;2023-04-24T07:15:49;1.42;;;0.70;;
53654;SDS011;39558;52.028;8.536;2023-04-24T07:18:17;2.03;;;0.60;;
53654;SDS011;39558;52.028;8.536;2023-04-24T07:20:43;0.95;;;0.60;;
53654;SDS011;39558;52.028;8.536;2023-04-24T07:23:09;1.08;;;0.40;;
53654;SDS011;39558;52.028;8.536;2023-04-24T07:25:35;2.15;;;0.40;;
53654;SDS011;39558;52.028;8.536;2023-04-24T07:28:01;1.17;;;0.70;;
53654;SDS011;39558;52.028;8.536;2023-04-24T07:30:28;0.57;;;0.30;;
53654;SDS011;39558;52.028;8.536;2023-04-24T07:32:54;1.40;;;0.60;;
53654;SDS011;39558;52.028;8.536;2023-04-24T07:35:21;0.95;;;0.50;;
53654;SDS011;39558;52.028;8.536;2023-04-24T07:37:47;1.33;;;0.68;;
53654;SDS011;39558;52.028;8.536;2023-04-24T07:40:13;1.00;;;0.60;;
53654;SDS011;39558;52.028;8.536;2023-04-24T07:42:39;0.77;;;0.50;;
53654;SDS011;39558;52.028;8.536;2023-04-24T07:45:06;0.77;;;0.38;;
53654;SDS011;39558;52.028;8.536;2023-04-24T07:47:32;0.80;;;0.40;;
53654;SDS011;39558;52.028;8.536;2023-04-24T07:49:58;1.08;;;0.50;;
53654;SDS011;39558;52.028;8.536;2023-04-24T07:52:24;1.55;;;0.60;;
53654;SDS011;39558;52.028;8.536;2023-04-24T07:54:50;0.70;;;0.45;;
53654;SDS011;39558;52.028;8.536;2023-04-24T07:57:23;1.30;;;0.52;;
53654;SDS011;39558;52.028;8.536;2023-04-24T07:59:49;1.55;;;0.68;;
53654;SDS011;39558;52.028;8.536;2023-04-24T08:02:15;1.02;;;0.50;;
53654;SDS011;39558;52.028;8.536;2023-04-24T08:04:41;0.82;;;0.43;;
53654;SDS011;39558;52.028;8.536;2023-04-24T08:07:07;1.10;;;0.40;;
53654;SDS011;39558;52.028;8.536;2023-04-24T08:09:33;0.70;;;0.45;;
53654;SDS011;39558;52.028;8.536;2023-04-24T08:11:59;0.77;;;0.40;;
53654;SDS011;39558;52.028;8.536;2023-04-24T08:14:26;0.50;;;0.30;;
53654;SDS011;39558;52.028;8.536;2023-04-24T08:16:53;1.02;;;0.47;;
53654;SDS011;39558;52.028;8.536;2023-04-24T08:19:25;1.45;;;0.50;;
53654;SDS011;39558;52.028;8.536;2023-04-24T08:21:51;0.77;;;0.35;;
53654;SDS011;39558;52.028;8.536;2023-04-24T08:24:16;0.98;;;0.55;;
53654;SDS011;39558;52.028;8.536;2023-04-24T08:26:42;0.50;;;0.30;;
53654;SDS011;39558;52.028;8.536;2023-04-24T08:29:08;0.30;;;0.30;;
53654;SDS011;39558;52.028;8.536;2023-04-24T08:31:34;1.58;;;0.52;;
53654;SDS011;39558;52.028;8.536;2023-04-24T08:34:00;1.25;;;0.50;;
53654;SDS011;39558;52.028;8.536;2023-04-24T08:36:26;1.25;;;0.40;;
53654;SDS011;39558;52.028;8.536;2023-04-24T08:38:52;0.85;;;0.40;;
53654;SDS011;39558;52.028;8.536;2023-04-24T08:41:18;0.77;;;0.30;;
53654;SDS011;39558;52.028;8.536;2023-04-24T08:43:45;0.95;;;0.50;;
53654;SDS011;39558;52.028;8.536;2023-04-24T08:46:11;0.43;;;0.35;;
53654;SDS011;39558;52.028;8.536;2023-04-24T08:48:38;0.65;;;0.47;;
53654;SDS011;39558;52.028;8.536;2023-04-24T08:51:08;0.85;;;0.50;;
53654;SDS011;39558;52.028;8.536;2023-04-24T08:53:35;0.43;;;0.30;;
53654;SDS011;39558;52.028;8.536;2023-04-24T08:56:01;1.15;;;0.40;;
53654;SDS011;39558;52.028;8.536;2023-04-24T08:58:28;0.70;;;0.40;;
53654;SDS011;39558;52.028;8.536;2023-04-24T09:00:54;0.90;;;0.40;;
53654;SDS011;39558;52.028;8.536;2023-04-24T09:03:20;0.93;;;0.40;;
53654;SDS011;39558;52.028;8.536;2023-04-24T09:05:47;1.58;;;0.57;;
53654;SDS011;39558;52.028;8.536;2023-04-24T09:08:15;1.52;;;0.57;;
53654;SDS011;39558;52.028;8.536;2023-04-24T09:10:41;1.05;;;0.50;;
53654;SDS011;39558;52.028;8.536;2023-04-24T09:13:07;0.77;;;0.38;;
53654;SDS011;39558;52.028;8.536;2023-04-24T09:15:37;0.70;;;0.40;;
53654;SDS011;39558;52.028;8.536;2023-04-24T09:18:03;0.47;;;0.40;;
53654;SDS011;39558;52.028;8.536;2023-04-24T09:20:29;0.70;;;0.38;;
53654;SDS011;39558;52.028;8.536;2023-04-24T09:22:58;0.85;;;0.43;;
53654;SDS011;39558;52.028;8.536;2023-04-24T09:25:31;1.17;;;0.50;;
53654;SDS011;39558;52.028;8.536;2023-04-24T09:28:00;0.70;;;0.40;;
53654;SDS011;39558;52.028;8.536;2023-04-24T09:30:27;1.40;;;0.47;;
53654;SDS011;39558;52.028;8.536;2023-04-24T09:35:40;0.82;;;0.45;;
53654;SDS011;39558;52.028;8.536;2023-04-24T09:38:06;1.17;;;0.32;;
53654;SDS011;39558;52.028;8.536;2023-04-24T09:40:31;0.60;;;0.25;;
53654;SDS011;39558;52.028;8.536;2023-04-24T09:42:59;1.00;;;0.47;;
53654;SDS011;39558;52.028;8.536;2023-04-24T09:45:29;0.95;;;0.50;;
53654;SDS011;39558;52.028;8.536;2023-04-24T09:48:00;0.93;;;0.30;;
53654;SDS011;39558;52.028;8.536;2023-04-24T09:50:26;0.50;;;0.20;;
53654;SDS011;39558;52.028;8.536;2023-04-24T09:52:57;1.02;;;0.60;;
53654;SDS011;39558;52.028;8.536;2023-04-24T09:55:23;0.98;;;0.38;;
53654;SDS011;39558;52.028;8.536;2023-04-24T09:57:51;1.40;;;0.35;;
53654;SDS011;39558;52.028;8.536;2023-04-24T10:00:18;0.77;;;0.30;;
53654;SDS011;39558;52.028;8.536;2023-04-24T10:02:44;1.00;;;0.40;;
53654;SDS011;39558;52.028;8.536;2023-04-24T10:05:11;0.50;;;0.30;;
53654;SDS011;39558;52.028;8.536;2023-04-24T10:07:40;0.40;;;0.30;;
53654;SDS011;39558;52.028;8.536;2023-04-24T10:10:06;0.82;;;0.40;;
53654;SDS011;39558;52.028;8.536;2023-04-24T10:12:32;0.80;;;0.28;;
53654;SDS011;39558;52.028;8.536;2023-04-24T10:14:58;0.50;;;0.30;;
53654;SDS011;39558;52.028;8.536;2023-04-24T10:17:25;0.50;;;0.30;;
53654;SDS011;39558;52.028;8.536;2023-04-24T10:19:51;1.77;;;0.40;;
53654;SDS011;39558;52.028;8.536;2023-04-24T10:22:17;0.40;;;0.30;;
53654;SDS011;39558;52.028;8.536;2023-04-24T10:24:43;1.23;;;0.50;;
53654;SDS011;39558;52.028;8.536;2023-04-24T10:27:09;0.50;;;0.32;;
53654;SDS011;39558;52.028;8.536;2023-04-24T10:29:35;0.40;;;0.25;;
53654;SDS011;39558;52.028;8.536;2023-04-24T10:32:01;0.70;;;0.30;;
53654;SDS011;39558;52.028;8.536;2023-04-24T10:34:27;0.77;;;0.35;;
53654;SDS011;39558;52.028;8.536;2023-04-24T10:36:53;0.35;;;0.20;;
53654;SDS011;39558;52.028;8.536;2023-04-24T10:39:21;0.60;;;0.30;;
53654;SDS011;39558;52.028;8.536;2023-04-24T10:41:48;0.85;;;0.32;;
53654;SDS011;39558;52.028;8.536;2023-04-24T10:44:15;0.73;;;0.40;;
53654;SDS011;39558;52.028;8.536;2023-04-24T10:46:52;0.75;;;0.35;;
53654;SDS011;39558;52.028;8.536;2023-04-24T10:49:19;2.50;;;0.30;;
53654;SDS011;39558;52.028;8.536;2023-04-24T10:51:53;0.20;;;0.20;;
53654;SDS011;39558;52.028;8.536;2023-04-24T10:54:27;0.93;;;0.30;;
53654;SDS011;39558;52.028;8.536;2023-04-24T10:56:55;0.60;;;0.20;;
53654;SDS011;39558;52.028;8.536;2023-04-24T10:59:39;0.52;;;0.20;;
53654;SDS011;39558;52.028;8.536;2023-04-24T11:02:06;0.25;;;0.20;;
53654;SDS011;39558;52.028;8.536;2023-04-24T11:04:33;0.93;;;0.35;;
53654;SDS011;39558;52.028;8.536;2023-04-24T11:07:00;0.55;;;0.30;;
53654;SDS011;39558;52.028;8.536;2023-04-24T11:09:26;0.82;;;0.45;;
53654;SDS011;39558;52.028;8.536;2023-04-24T11:12:02;0.47;;;0.25;;
53654;SDS011;39558;52.028;8.536;2023-04-24T11:14:31;0.93;;;0.30;;
53654;SDS011;39558;52.028;8.536;2023-04-24T11:17:38;0.60;;;0.40;;
53654;SDS011;39558;52.028;8.536;2023-04-24T11:20:11;0.30;;;0.28;;
53654;SDS011;39558;52.028;8.536;2023-04-24T11:22:38;0.50;;;0.30;;
53654;SDS011;39558;52.028;8.536;2023-04-24T11:25:05;0.77;;;0.30;;
53654;SDS011;39558;52.028;8.536;2023-04-24T11:27:32;0.38;;;0.20;;
53654;SDS011;39558;52.028;8.536;2023-04-24T11:30:03;0.65;;;0.25;;
53654;SDS011;39558;52.028;8.536;2023-04-24T11:32:33;0.77;;;0.40;;
53654;SDS011;39558;52.028;8.536;2023-04-24T11:37:36;0.80;;;0.33;;
53654;SDS011;39558;52.028;8.536;2023-04-24T11:42:29;0.65;;;0.30;;
53654;SDS011;39558;52.028;8.536;2023-04-24T11:44:58;0.50;;;0.30;;
53654;SDS011;39558;52.028;8.536;2023-04-24T11:47:30;0.70;;;0.30;;
53654;SDS011;39558;52.028;8.536;2023-04-24T11:49:58;0.40;;;0.20;;
53654;SDS011;39558;52.028;8.536;2023-04-24T11:52:24;0.30;;;0.20;;
53654;SDS011;39558;52.028;8.536;2023-04-24T11:54:50;1.00;;;0.50;;
53654;SDS011;39558;52.028;8.536;2023-04-24T11:57:16;0.25;;;0.10;;
53654;SDS011;39558;52.028;8.536;2023-04-24T11:59:44;1.25;;;0.30;;
53654;SDS011;39558;52.028;8.536;2023-04-24T12:02:19;1.77;;;0.30;;
53654;SDS011;39558;52.028;8.536;2023-04-24T12:04:45;0.93;;;0.30;;
53654;SDS011;39558;52.028;8.536;2023-04-24T12:07:11;0.45;;;0.22;;
53654;SDS011;39558;52.028;8.536;2023-04-24T12:09:44;0.50;;;0.22;;
53654;SDS011;39558;52.028;8.536;2023-04-24T12:12:11;0.43;;;0.28;;
53654;SDS011;39558;52.028;8.536;2023-04-24T12:14:44;0.80;;;0.50;;
53654;SDS011;39558;52.028;8.536;2023-04-24T12:17:10;0.80;;;0.25;;
53654;SDS011;39558;52.028;8.536;2023-04-24T12:19:36;0.55;;;0.30;;
53654;SDS011;39558;52.028;8.536;2023-04-24T12:22:06;0.82;;;0.40;;
53654;SDS011;39558;52.028;8.536;2023-04-24T12:24:32;0.60;;;0.20;;
53654;SDS011;39558;52.028;8.536;2023-04-24T12:26:58;0.38;;;0.20;;
53654;SDS011;39558;52.028;8.536;2023-04-24T12:29:26;1.42;;;0.30;;
53654;SDS011;39558;52.028;8.536;2023-04-24T12:31:52;0.70;;;0.22;;
53654;SDS011;39558;52.028;8.536;2023-04-24T12:34:22;0.30;;;0.10;;
53654;SDS011;39558;52.028;8.536;2023-04-24T12:36:48;0.68;;;0.22;;
53654;SDS011;39558;52.028;8.536;2023-04-24T12:39:15;1.23;;;0.30;;
53654;SDS011;39558;52.028;8.536;2023-04-24T12:41:54;1.50;;;0.35;;
53654;SDS011;39558;52.028;8.536;2023-04-24T12:44:28;0.45;;;0.20;;
53654;SDS011;39558;52.028;8.536;2023-04-24T12:46:55;1.00;;;0.40;;
53654;SDS011;39558;52.028;8.536;2023-04-24T12:49:21;0.28;;;0.20;;
53654;SDS011;39558;52.028;8.536;2023-04-24T12:51:46;0.20;;;0.20;;
53654;SDS011;39558;52.028;8.536;2023-04-24T12:54:12;0.75;;;0.30;;
53654;SDS011;39558;52.028;8.536;2023-04-24T12:56:38;0.43;;;0.30;;
53654;SDS011;39558;52.028;8.536;2023-04-24T12:59:04;0.52;;;0.20;;
53654;SDS011;39558;52.028;8.536;2023-04-24T13:01:30;0.50;;;0.30;;
53654;SDS011;39558;52.028;8.536;2023-04-24T13:03:56;0.45;;;0.20;;
53654;SDS011;39558;52.028;8.536;2023-04-24T13:06:22;1.13;;;0.28;;
53654;SDS011;39558;52.028;8.536;2023-04-24T13:08:48;0.80;;;0.30;;
53654;SDS011;39558;52.028;8.536;2023-04-24T13:11:14;0.70;;;0.32;;
53654;SDS011;39558;52.028;8.536;2023-04-24T13:13:40;0.35;;;0.20;;
53654;SDS011;39558;52.028;8.536;2023-04-24T13:16:06;0.50;;;0.20;;
53654;SDS011;39558;52.028;8.536;2023-04-24T13:18:32;0.95;;;0.40;;
53654;SDS011;39558;52.028;8.536;2023-04-24T13:20:58;1.08;;;0.20;;
53654;SDS011;39558;52.028;8.536;2023-04-24T13:23:23;0.68;;;0.28;;
53654;SDS011;39558;52.028;8.536;2023-04-24T13:25:49;0.28;;;0.13;;
53654;SDS011;39558;52.028;8.536;2023-04-24T13:28:15;0.52;;;0.20;;
53654;SDS011;39558;52.028;8.536;2023-04-24T13:30:41;0.47;;;0.25;;
53654;SDS011;39558;52.028;8.536;2023-04-24T13:33:07;0.10;;;0.10;;
53654;SDS011;39558;52.028;8.536;2023-04-24T13:35:33;0.40;;;0.30;;
53654;SDS011;39558;52.028;8.536;2023-04-24T13:37:59;1.35;;;0.40;;
53654;SDS011;39558;52.028;8.536;2023-04-24T13:40:26;0.52;;;0.20;;
53654;SDS011;39558;52.028;8.536;2023-04-24T13:42:52;0.20;;;0.10;;
53654;SDS011;39558;52.028;8.536;2023-04-24T13:45:18;0.55;;;0.28;;
53654;SDS011;39558;52.028;8.536;2023-04-24T13:47:44;0.40;;;0.20;;
53654;SDS011;39558;52.028;8.536;2023-04-24T13:50:10;1.25;;;0.32;;
53654;SDS011;39558;52.028;8.536;2023-04-24T13:52:36;1.10;;;0.32;;
53654;SDS011;39558;52.028;8.536;2023-04-24T13:55:02;2.15;;;0.30;;
53654;SDS011;39558;52.028;8.536;2023-04-24T13:57:28;0.45;;;0.22;;
53654;SDS011;39558;52.028;8.536;2023-04-24T13:59:55;0.38;;;0.20;;
53654;SDS011;39558;52.028;8.536;2023-04-24T14:04:51;0.63;;;0.20;;
53654;SDS011;39558;52.028;8.536;2023-04-24T14:07:17;0.43;;;0.20;;
53654;SDS011;39558;52.028;8.536;2023-04-24T14:09:43;0.20;;;0.10;;
53654;SDS011;39558;52.028;8.536;2023-04-24T14:12:09;0.38;;;0.20;;
53654;SDS011;39558;52.028;8.536;2023-04-24T14:14:35;0.45;;;0.20;;
53654;SDS011;39558;52.028;8.536;2023-04-24T14:17:01;0.40;;;0.20;;
53654;SDS011;39558;52.028;8.536;2023-04-24T14:19:27;0.55;;;0.20;;
53654;SDS011;39558;52.028;8.536;2023-04-24T14:21:53;0.30;;;0.20;;
53654;SDS011;39558;52.028;8.536;2023-04-24T14:24:20;0.43;;;0.30;;
53654;SDS011;39558;52.028;8.536;2023-04-24T14:26:46;0.40;;;0.20;;
53654;SDS011;39558;52.028;8.536;2023-04-24T14:29:12;0.55;;;0.35;;
53654;SDS011;39558;52.028;8.536;2023-04-24T14:31:38;0.43;;;0.20;;
53654;SDS011;39558;52.028;8.536;2023-04-24T14:34:04;0.20;;;0.10;;
53654;SDS011;39558;52.028;8.536;2023-04-24T14:36:30;0.25;;;0.20;;
53654;SDS011;39558;52.028;8.536;2023-04-24T14:38:56;0.20;;;0.20;;
53654;SDS011;39558;52.028;8.536;2023-04-24T14:41:22;0.45;;;0.20;;
53654;SDS011;39558;52.028;8.536;2023-04-24T14:43:48;0.73;;;0.30;;
53654;SDS011;39558;52.028;8.536;2023-04-24T14:46:14;1.17;;;0.32;;
53654;SDS011;39558;52.028;8.536;2023-04-24T14:48:40;0.30;;;0.20;;
53654;SDS011;39558;52.028;8.536;2023-04-24T14:51:06;0.40;;;0.20;;
53654;SDS011;39558;52.028;8.536;2023-04-24T14:53:32;0.20;;;0.10;;
53654;SDS011;39558;52.028;8.536;2023-04-24T14:55:58;1.88;;;0.30;;
53654;SDS011;39558;52.028;8.536;2023-04-24T14:58:24;0.30;;;0.13;;